createdAt,value
2023-02-11T00:04:21.098Z,77.25
2023-02-11T00:09:23.533Z,84.02
2023-02-11T00:14:25.916Z,77.57
2023-02-11T00:19:28.042Z,75.07
2023-02-11T00:24:30.215Z,76.11
2023-02-11T00:29:32.317Z,77.01
2023-02-11T00:34:35.902Z,77.67
2023-02-11T00:39:37.976Z,78.53
2023-02-11T00:44:40.044Z,78.65
2023-02-11T00:49:42.146Z,78.73
2023-02-11T00:54:44.418Z,79.81
2023-02-11T00:59:46.485Z,79.62
2023-02-11T01:04:48.743Z,79.77
2023-02-11T01:09:50.946Z,79.60
2023-02-11T01:14:53.088Z,79.58
2023-02-11T01:19:55.229Z,79.94
2023-02-11T01:24:57.308Z,80.21
2023-02-11T01:29:59.463Z,80.25
2023-02-11T01:35:01.890Z,80.20
2023-02-11T01:40:14.124Z,80.71
2023-02-11T01:45:58.468Z,80.97
2023-02-11T01:51:09.120Z,81.04
2023-02-11T01:56:31.011Z,81.25
2023-02-11T02:06:56.086Z,81.06
2023-02-11T02:11:58.258Z,80.98
2023-02-11T02:17:00.924Z,80.87
2023-02-11T02:22:36.988Z,80.45
2023-02-11T02:27:50.980Z,80.86
2023-02-11T02:32:55.789Z,80.97
2023-02-11T02:38:03.490Z,81.23
2023-02-11T02:43:08.472Z,81.80
2023-02-11T02:48:29.933Z,81.32
2023-02-11T02:53:57.339Z,82.01
2023-02-11T02:59:27.271Z,81.68
2023-02-11T03:04:51.378Z,81.80
2023-02-11T03:10:08.125Z,81.72
2023-02-11T03:15:12.586Z,82.09
2023-02-11T03:20:18.350Z,82.14
2023-02-11T03:25:22.787Z,82.15
2023-02-11T03:30:49.277Z,82.60
2023-02-11T03:35:56.636Z,82.71
2023-02-11T03:41:01.953Z,82.94
2023-02-11T03:46:05.187Z,82.65
2023-02-11T03:51:09.759Z,83.23
2023-02-11T03:56:17.555Z,83.22
2023-02-11T04:01:19.699Z,83.74
2023-02-11T04:06:21.866Z,83.50
2023-02-11T04:11:24.035Z,83.21
2023-02-11T04:16:26.330Z,83.12
2023-02-11T04:21:28.932Z,83.27
2023-02-11T04:26:31.029Z,83.50
2023-02-11T04:31:33.178Z,83.98
2023-02-11T04:36:35.381Z,84.05
2023-02-11T04:41:37.465Z,84.12
2023-02-11T04:46:39.605Z,84.04
2023-02-11T04:51:42.245Z,84.46
2023-02-11T04:56:44.614Z,83.97
2023-02-11T05:01:46.792Z,84.17
2023-02-11T05:06:48.989Z,84.27
2023-02-11T05:11:51.129Z,84.69
2023-02-11T05:16:53.251Z,83.85
2023-02-11T05:22:02.584Z,84.40
2023-02-11T05:27:05.370Z,84.63
2023-02-11T05:32:09.074Z,83.57
2023-02-11T05:37:11.409Z,82.97
2023-02-11T05:42:14.374Z,83.39
2023-02-11T05:47:16.515Z,82.90
2023-02-11T05:52:18.617Z,82.76
2023-02-11T05:57:20.800Z,82.77
2023-02-11T06:02:23.035Z,82.75
2023-02-11T06:07:25.270Z,82.94
2023-02-11T06:12:27.702Z,82.33
2023-02-11T06:17:33.796Z,82.07
2023-02-11T06:22:36.015Z,81.88
2023-02-11T06:27:38.854Z,81.80
2023-02-11T06:32:45.703Z,81.03
2023-02-11T06:37:49.742Z,79.96
2023-02-11T06:42:52.067Z,79.76
2023-02-11T06:47:54.395Z,79.32
2023-02-11T06:52:56.558Z,78.42
2023-02-11T06:57:58.652Z,77.05
2023-02-11T07:03:00.790Z,76.32
2023-02-11T07:08:02.924Z,76.23
2023-02-11T07:13:05.053Z,75.89
2023-02-11T07:18:07.144Z,75.87
2023-02-11T07:23:09.267Z,73.62
2023-02-11T07:28:11.486Z,73.85
2023-02-11T07:33:13.735Z,70.17
2023-02-11T07:38:15.875Z,67.31
2023-02-11T07:43:17.996Z,65.69
2023-02-11T07:48:20.146Z,68.38
2023-02-11T07:53:22.273Z,67.35
2023-02-11T07:58:24.492Z,65.19
2023-02-11T08:03:26.682Z,65.36
2023-02-11T08:08:29.606Z,63.43
2023-02-11T08:13:31.765Z,61.92
2023-02-11T08:18:35.200Z,60.65
2023-02-11T08:23:43.137Z,59.26
2023-02-11T08:28:47.706Z,59.13
2023-02-11T08:33:50.092Z,59.71
2023-02-11T08:38:57.136Z,59.84
2023-02-11T08:44:05.084Z,58.37
2023-02-11T08:49:07.300Z,56.77
2023-02-11T08:54:10.107Z,56.34
2023-02-11T08:59:15.679Z,54.38
2023-02-11T09:04:17.828Z,53.26
2023-02-11T09:09:20.100Z,52.97
2023-02-11T09:14:24.216Z,52.75
2023-02-11T09:19:26.359Z,52.87
2023-02-11T09:24:28.903Z,52.40
2023-02-11T09:29:31.231Z,50.15
2023-02-11T09:34:33.377Z,45.36
2023-02-11T09:39:35.641Z,43.75
2023-02-11T09:44:39.531Z,40.06
2023-02-11T09:49:47.342Z,36.77
2023-02-11T09:54:57.145Z,31.37
2023-02-11T09:59:59.868Z,31.54
2023-02-11T10:05:29.102Z,34.33
2023-02-11T10:10:54.387Z,33.45
2023-02-11T10:16:06.174Z,34.68
2023-02-11T10:21:11.133Z,37.31
2023-02-11T10:26:17.162Z,36.06
2023-02-11T10:31:38.485Z,34.97
2023-02-11T10:36:43.341Z,32.11
2023-02-11T10:41:54.415Z,30.25
2023-02-11T10:46:59.127Z,28.83
2023-02-11T10:52:19.785Z,27.38
2023-02-11T10:57:22.610Z,21.37
2023-02-11T11:02:34.467Z,25.72
2023-02-11T11:07:37.092Z,32.11
2023-02-11T11:12:45.197Z,29.42
2023-02-11T11:17:51.785Z,27.96
2023-02-11T11:23:17.383Z,27.37
2023-02-11T11:28:24.138Z,35.00
2023-02-11T11:33:30.651Z,38.39
2023-02-11T11:38:35.145Z,39.27
2023-02-11T11:43:37.765Z,30.56
2023-02-11T11:48:46.676Z,26.85
2023-02-11T11:53:59.210Z,32.98
2023-02-11T11:59:06.872Z,35.30
2023-02-11T12:04:21.170Z,35.48
2023-02-11T12:09:23.380Z,34.91
2023-02-11T12:14:47.285Z,36.50
2023-02-11T12:19:59.575Z,37.50
2023-02-11T12:25:18.134Z,35.91
2023-02-11T12:31:02.564Z,33.94
2023-02-11T12:36:41.780Z,30.93
2023-02-11T12:42:16.038Z,31.68
2023-02-11T12:47:33.382Z,30.32
2023-02-11T12:52:53.770Z,28.38
2023-02-11T12:57:59.532Z,25.12
2023-02-11T13:03:12.468Z,28.00
2023-02-11T13:08:43.420Z,26.06
2023-02-11T13:13:45.500Z,19.86
2023-02-11T13:18:51.700Z,27.32
2023-02-11T13:24:09.764Z,29.00
2023-02-11T13:29:18.051Z,30.20
2023-02-11T13:34:44.319Z,31.12
2023-02-11T13:40:01.676Z,31.55
2023-02-11T13:45:18.740Z,33.13
2023-02-11T13:50:24.985Z,33.64
2023-02-11T13:55:28.139Z,34.24
2023-02-11T14:00:36.344Z,34.57
2023-02-11T14:05:57.251Z,34.64
2023-02-11T14:11:03.628Z,34.92
2023-02-11T14:16:10.414Z,34.04
2023-02-11T14:21:28.161Z,27.45
2023-02-11T14:26:56.170Z,24.11
2023-02-11T14:32:04.722Z,23.66
2023-02-11T14:37:13.750Z,26.54
2023-02-11T14:42:22.909Z,31.77
2023-02-11T14:47:37.037Z,34.43
2023-02-11T14:52:39.566Z,34.70
2023-02-11T14:57:44.500Z,35.09
2023-02-11T15:02:47.413Z,34.79
2023-02-11T15:08:01.779Z,32.15
2023-02-11T15:13:05.487Z,32.83
2023-02-11T15:18:09.638Z,32.01
2023-02-11T15:23:21.701Z,35.26
2023-02-11T15:28:28.879Z,37.87
2023-02-11T15:33:33.162Z,37.85
2023-02-11T15:38:35.291Z,38.74
2023-02-11T15:43:55.630Z,39.39
2023-02-11T15:48:57.918Z,41.23
2023-02-11T15:54:18.557Z,41.58
2023-02-11T15:59:38.063Z,42.60
2023-02-11T16:04:51.158Z,43.07
2023-02-11T16:09:58.572Z,44.19
2023-02-11T16:15:29.703Z,44.11
2023-02-11T16:20:32.054Z,44.12
2023-02-11T16:25:37.821Z,44.78
2023-02-11T16:30:40.993Z,45.73
2023-02-11T16:35:47.578Z,46.61
2023-02-11T16:40:50.545Z,45.87
2023-02-11T16:45:53.229Z,45.75
2023-02-11T16:50:55.781Z,46.08
2023-02-11T16:55:58.025Z,46.64
2023-02-11T17:01:00.749Z,47.24
2023-02-11T17:06:05.683Z,47.06
2023-02-11T17:11:07.802Z,46.29
2023-02-11T17:16:22.587Z,46.50
2023-02-11T17:21:28.169Z,46.73
2023-02-11T17:26:31.783Z,47.17
2023-02-11T17:31:34.562Z,47.44
2023-02-11T17:36:37.081Z,47.65
2023-02-11T17:41:40.563Z,47.40
2023-02-11T17:46:42.696Z,46.82
2023-02-11T17:51:44.990Z,46.99
2023-02-11T17:56:50.693Z,47.07
2023-02-11T18:01:53.062Z,47.11
2023-02-11T18:06:55.195Z,47.49
2023-02-11T18:11:58.425Z,47.81
2023-02-11T18:17:00.590Z,47.99
2023-02-11T18:22:04.404Z,48.73
2023-02-11T18:27:06.740Z,48.84
2023-02-11T18:32:08.981Z,50.57
2023-02-11T18:37:13.304Z,48.92
2023-02-11T18:42:15.612Z,49.04
2023-02-11T18:47:17.895Z,49.00
2023-02-11T18:52:19.980Z,49.22
2023-02-11T18:57:22.191Z,48.62
2023-02-11T19:02:25.036Z,48.24
2023-02-11T19:07:27.282Z,48.21
2023-02-11T19:12:29.383Z,48.19
2023-02-11T19:17:31.486Z,49.75
2023-02-11T19:22:33.582Z,49.11
2023-02-11T19:27:35.748Z,49.34
2023-02-11T19:32:38.005Z,48.62
2023-02-11T19:37:40.525Z,48.58
2023-02-11T19:42:43.579Z,49.34
2023-02-11T19:47:45.774Z,48.75
2023-02-11T19:52:47.878Z,49.19
2023-02-11T19:57:50.021Z,49.61
2023-02-11T20:02:52.233Z,49.97
2023-02-11T20:07:54.389Z,50.31
2023-02-11T20:12:56.519Z,50.47
2023-02-11T20:17:58.647Z,50.67
2023-02-11T20:23:01.105Z,51.26
2023-02-11T20:28:03.293Z,51.88
2023-02-11T20:33:05.455Z,52.39
2023-02-11T20:38:07.605Z,52.77
2023-02-11T20:43:10.686Z,53.11
2023-02-11T20:48:13.579Z,53.47
2023-02-11T20:53:15.880Z,53.88
2023-02-11T20:58:18.279Z,54.44
2023-02-11T21:03:20.445Z,54.76
2023-02-11T21:08:22.595Z,55.12
2023-02-11T21:13:24.949Z,56.39
2023-02-11T21:18:27.207Z,57.20
2023-02-11T21:23:29.390Z,58.60
2023-02-11T21:28:31.973Z,58.45
2023-02-11T21:33:34.681Z,58.94
2023-02-11T21:38:36.794Z,58.57
2023-02-11T21:43:39.140Z,58.37
2023-02-11T21:48:41.514Z,59.57
2023-02-11T21:53:43.625Z,59.83
2023-02-11T21:58:46.437Z,60.83
2023-02-11T22:03:49.124Z,62.00
2023-02-11T22:08:52.254Z,62.94
2023-02-11T22:13:55.391Z,64.21
2023-02-11T22:19:02.488Z,65.49
2023-02-11T22:24:07.188Z,66.02
2023-02-11T22:29:09.584Z,66.90
2023-02-11T22:34:11.884Z,67.62
2023-02-11T22:39:17.694Z,67.21
2023-02-11T22:44:20.634Z,67.76
2023-02-11T22:49:22.930Z,69.15
2023-02-11T22:54:25.109Z,70.49
2023-02-11T22:59:27.218Z,71.13
2023-02-11T23:04:29.295Z,72.18
2023-02-11T23:09:31.430Z,71.94
2023-02-11T23:14:33.504Z,72.11
2023-02-11T23:19:35.684Z,72.42
2023-02-11T23:24:37.813Z,73.71
2023-02-11T23:29:39.916Z,73.48
2023-02-11T23:34:45.071Z,74.19
2023-02-11T23:39:47.137Z,74.46
2023-02-11T23:44:49.269Z,75.19
2023-02-11T23:49:51.442Z,75.00
2023-02-11T23:54:53.673Z,75.50
2023-02-11T23:59:55.850Z,76.29
